sensor_id;sensor_type;location;lat;lon;timestamp;P1;durP1;ratioP1;P2;durP2;ratioP2
53875;SDS011;39789;53.216;5.624;2023-04-25T02:59:23;12.40;;;3.67;;
53875;SDS011;39789;53.216;5.624;2023-04-25T03:01:49;13.32;;;3.95;;
53875;SDS011;39789;53.216;5.624;2023-04-25T03:38:49;15.05;;;2.70;;
53875;SDS011;39789;53.216;5.624;2023-04-25T03:57:25;16.83;;;3.55;;
53875;SDS011;39789;53.216;5.624;2023-04-25T04:29:03;9.00;;;2.85;;
53875;SDS011;39789;53.216;5.624;2023-04-25T04:31:29;5.20;;;2.58;;
53875;SDS011;39789;53.216;5.624;2023-04-25T04:34:03;5.32;;;1.98;;
53875;SDS011;39789;53.216;5.624;2023-04-25T04:36:31;7.93;;;2.00;;
53875;SDS011;39789;53.216;5.624;2023-04-25T04:39:06;10.68;;;2.47;;
53875;SDS011;39789;53.216;5.624;2023-04-25T04:41:37;8.55;;;1.88;;
53875;SDS011;39789;53.216;5.624;2023-04-25T04:44:10;10.88;;;2.20;;
53875;SDS011;39789;53.216;5.624;2023-04-25T04:46:37;13.57;;;2.97;;
53875;SDS011;39789;53.216;5.624;2023-04-25T04:51:45;6.03;;;2.10;;
53875;SDS011;39789;53.216;5.624;2023-04-25T04:57:34;6.55;;;2.03;;
53875;SDS011;39789;53.216;5.624;2023-04-25T05:01:02;9.20;;;2.08;;
53875;SDS011;39789;53.216;5.624;2023-04-25T05:07:09;8.85;;;2.10;;
53875;SDS011;39789;53.216;5.624;2023-04-25T06:04:40;10.35;;;2.20;;
53875;SDS011;39789;53.216;5.624;2023-04-25T06:07:11;9.75;;;2.80;;
53875;SDS011;39789;53.216;5.624;2023-04-25T06:15:25;9.48;;;2.80;;
53875;SDS011;39789;53.216;5.624;2023-04-25T06:20:28;13.95;;;2.75;;
53875;SDS011;39789;53.216;5.624;2023-04-25T06:22:57;7.80;;;2.75;;
53875;SDS011;39789;53.216;5.624;2023-04-25T06:45:53;4.13;;;1.50;;
53875;SDS011;39789;53.216;5.624;2023-04-25T06:48:42;7.57;;;1.83;;
53875;SDS011;39789;53.216;5.624;2023-04-25T06:55:55;5.15;;;1.70;;
53875;SDS011;39789;53.216;5.624;2023-04-25T06:58:20;4.13;;;1.85;;
53875;SDS011;39789;53.216;5.624;2023-04-25T07:03:53;6.22;;;2.08;;
53875;SDS011;39789;53.216;5.624;2023-04-25T07:06:21;5.40;;;2.00;;
53875;SDS011;39789;53.216;5.624;2023-04-25T08:25:58;8.20;;;2.50;;
53875;SDS011;39789;53.216;5.624;2023-04-25T11:12:20;6.82;;;1.92;;
53875;SDS011;39789;53.216;5.624;2023-04-25T11:18:47;8.38;;;1.98;;
53875;SDS011;39789;53.216;5.624;2023-04-25T15:21:00;8.45;;;2.08;;
53875;SDS011;39789;53.216;5.624;2023-04-25T15:24:20;11.73;;;2.53;;
53875;SDS011;39789;53.216;5.624;2023-04-25T15:29:21;7.72;;;2.08;;
53875;SDS011;39789;53.216;5.624;2023-04-25T15:32:00;5.35;;;1.63;;
53875;SDS011;39789;53.216;5.624;2023-04-25T15:47:33;4.35;;;2.00;;
53875;SDS011;39789;53.216;5.624;2023-04-25T16:05:56;7.53;;;1.67;;
53875;SDS011;39789;53.216;5.624;2023-04-25T16:13:47;7.45;;;1.90;;
53875;SDS011;39789;53.216;5.624;2023-04-25T16:19:11;5.25;;;1.90;;
53875;SDS011;39789;53.216;5.624;2023-04-25T16:24:29;8.88;;;2.08;;
53875;SDS011;39789;53.216;5.624;2023-04-25T16:27:07;8.40;;;2.00;;
53875;SDS011;39789;53.216;5.624;2023-04-25T16:29:45;4.68;;;2.40;;
53875;SDS011;39789;53.216;5.624;2023-04-25T16:35:04;5.90;;;2.10;;
53875;SDS011;39789;53.216;5.624;2023-04-25T16:37:40;9.43;;;2.20;;
53875;SDS011;39789;53.216;5.624;2023-04-25T16:40:17;5.57;;;2.03;;
53875;SDS011;39789;53.216;5.624;2023-04-25T16:42:46;15.07;;;2.58;;
53875;SDS011;39789;53.216;5.624;2023-04-25T16:47:50;8.93;;;2.05;;
53875;SDS011;39789;53.216;5.624;2023-04-25T16:50:33;8.75;;;2.22;;
53875;SDS011;39789;53.216;5.624;2023-04-25T16:53:07;7.28;;;2.10;;
53875;SDS011;39789;53.216;5.624;2023-04-25T16:55:36;6.07;;;2.40;;
53875;SDS011;39789;53.216;5.624;2023-04-25T16:58:08;6.13;;;2.00;;
53875;SDS011;39789;53.216;5.624;2023-04-25T17:00:48;8.13;;;2.75;;
53875;SDS011;39789;53.216;5.624;2023-04-25T17:03:20;7.18;;;2.42;;
53875;SDS011;39789;53.216;5.624;2023-04-25T17:14:25;8.05;;;2.03;;
53875;SDS011;39789;53.216;5.624;2023-04-25T17:17:10;5.53;;;2.00;;
53875;SDS011;39789;53.216;5.624;2023-04-25T17:27:38;5.13;;;2.75;;
53875;SDS011;39789;53.216;5.624;2023-04-25T17:30:07;7.20;;;2.90;;
53875;SDS011;39789;53.216;5.624;2023-04-25T17:32:46;7.50;;;2.85;;
53875;SDS011;39789;53.216;5.624;2023-04-25T17:35:23;7.25;;;2.70;;
53875;SDS011;39789;53.216;5.624;2023-04-25T17:38:13;12.98;;;3.15;;
53875;SDS011;39789;53.216;5.624;2023-04-25T17:40:43;10.93;;;2.90;;
53875;SDS011;39789;53.216;5.624;2023-04-25T17:43:11;10.90;;;2.80;;
53875;SDS011;39789;53.216;5.624;2023-04-25T17:45:43;5.78;;;2.67;;
53875;SDS011;39789;53.216;5.624;2023-04-25T17:53:23;8.15;;;2.42;;
53875;SDS011;39789;53.216;5.624;2023-04-25T17:55:51;11.18;;;3.03;;
53875;SDS011;39789;53.216;5.624;2023-04-25T17:58:35;14.52;;;2.97;;
53875;SDS011;39789;53.216;5.624;2023-04-25T18:03:48;8.63;;;2.67;;
53875;SDS011;39789;53.216;5.624;2023-04-25T18:11:36;7.43;;;2.78;;
53875;SDS011;39789;53.216;5.624;2023-04-25T18:14:05;11.05;;;3.00;;
53875;SDS011;39789;53.216;5.624;2023-04-25T18:16:35;10.20;;;3.03;;
53875;SDS011;39789;53.216;5.624;2023-04-25T18:19:10;6.60;;;2.42;;
53875;SDS011;39789;53.216;5.624;2023-04-25T18:21:42;24.83;;;4.65;;
53875;SDS011;39789;53.216;5.624;2023-04-25T18:29:23;9.80;;;4.00;;
53875;SDS011;39789;53.216;5.624;2023-04-25T18:31:52;7.80;;;3.08;;
53875;SDS011;39789;53.216;5.624;2023-04-25T18:34:18;9.13;;;3.08;;
53875;SDS011;39789;53.216;5.624;2023-04-25T18:52:28;14.27;;;3.72;;
53875;SDS011;39789;53.216;5.624;2023-04-25T18:54:56;15.68;;;4.78;;
53875;SDS011;39789;53.216;5.624;2023-04-25T18:57:28;8.32;;;2.95;;
53875;SDS011;39789;53.216;5.624;2023-04-25T19:02:34;10.20;;;3.40;;
53875;SDS011;39789;53.216;5.624;2023-04-25T19:15:22;9.00;;;2.95;;
53875;SDS011;39789;53.216;5.624;2023-04-25T19:17:50;11.27;;;3.03;;
53875;SDS011;39789;53.216;5.624;2023-04-25T20:12:19;7.88;;;2.53;;
53875;SDS011;39789;53.216;5.624;2023-04-25T20:14:50;5.47;;;3.22;;
53875;SDS011;39789;53.216;5.624;2023-04-25T20:17:25;7.47;;;2.78;;
53875;SDS011;39789;53.216;5.624;2023-04-25T20:49:36;9.77;;;3.53;;
53875;SDS011;39789;53.216;5.624;2023-04-25T20:52:02;8.38;;;3.95;;
53875;SDS011;39789;53.216;5.624;2023-04-25T20:54:33;9.40;;;3.20;;
53875;SDS011;39789;53.216;5.624;2023-04-25T20:57:04;6.68;;;3.55;;
53875;SDS011;39789;53.216;5.624;2023-04-25T20:59:35;14.57;;;3.97;;
53875;SDS011;39789;53.216;5.624;2023-04-25T21:02:03;10.48;;;3.78;;
53875;SDS011;39789;53.216;5.624;2023-04-25T21:04:29;10.68;;;3.42;;
53875;SDS011;39789;53.216;5.624;2023-04-25T21:06:57;8.02;;;3.20;;
53875;SDS011;39789;53.216;5.624;2023-04-25T21:09:39;7.82;;;3.00;;
53875;SDS011;39789;53.216;5.624;2023-04-25T21:12:14;8.00;;;2.95;;
53875;SDS011;39789;53.216;5.624;2023-04-25T21:15:04;8.15;;;2.70;;
53875;SDS011;39789;53.216;5.624;2023-04-25T21:17:39;5.07;;;2.30;;
53875;SDS011;39789;53.216;5.624;2023-04-25T21:20:29;6.38;;;2.70;;
53875;SDS011;39789;53.216;5.624;2023-04-25T21:23:21;9.45;;;3.20;;
53875;SDS011;39789;53.216;5.624;2023-04-25T21:25:52;7.43;;;3.20;;
53875;SDS011;39789;53.216;5.624;2023-04-25T21:28:20;10.50;;;3.33;;
53875;SDS011;39789;53.216;5.624;2023-04-25T21:30:55;8.57;;;3.67;;
53875;SDS011;39789;53.216;5.624;2023-04-25T21:33:21;7.45;;;2.88;;
53875;SDS011;39789;53.216;5.624;2023-04-25T21:35:49;9.18;;;4.22;;
53875;SDS011;39789;53.216;5.624;2023-04-25T21:38:16;9.30;;;3.35;;
53875;SDS011;39789;53.216;5.624;2023-04-25T21:40:50;11.98;;;3.88;;
53875;SDS011;39789;53.216;5.624;2023-04-25T21:43:16;9.93;;;3.83;;
53875;SDS011;39789;53.216;5.624;2023-04-25T21:45:48;8.20;;;3.95;;
53875;SDS011;39789;53.216;5.624;2023-04-25T21:48:14;11.65;;;3.78;;
53875;SDS011;39789;53.216;5.624;2023-04-25T21:50:40;12.95;;;3.85;;
53875;SDS011;39789;53.216;5.624;2023-04-25T21:58:32;6.60;;;2.25;;
53875;SDS011;39789;53.216;5.624;2023-04-25T22:01:00;15.38;;;3.25;;
53875;SDS011;39789;53.216;5.624;2023-04-25T22:03:32;10.13;;;3.08;;
53875;SDS011;39789;53.216;5.624;2023-04-25T22:06:03;9.95;;;3.83;;
53875;SDS011;39789;53.216;5.624;2023-04-25T22:08:28;6.40;;;2.72;;
53875;SDS011;39789;53.216;5.624;2023-04-25T22:11:14;8.82;;;3.38;;
53875;SDS011;39789;53.216;5.624;2023-04-25T22:13:41;7.22;;;2.67;;
53875;SDS011;39789;53.216;5.624;2023-04-25T22:16:19;6.95;;;2.78;;
53875;SDS011;39789;53.216;5.624;2023-04-25T22:18:48;6.50;;;2.90;;
53875;SDS011;39789;53.216;5.624;2023-04-25T22:21:15;7.63;;;2.90;;
53875;SDS011;39789;53.216;5.624;2023-04-25T22:23:41;6.63;;;3.38;;
53875;SDS011;39789;53.216;5.624;2023-04-25T22:26:16;11.80;;;3.22;;
53875;SDS011;39789;53.216;5.624;2023-04-25T22:28:49;7.35;;;2.90;;
53875;SDS011;39789;53.216;5.624;2023-04-25T22:31:15;11.27;;;2.40;;
53875;SDS011;39789;53.216;5.624;2023-04-25T22:33:43;9.15;;;2.17;;
53875;SDS011;39789;53.216;5.624;2023-04-25T22:36:11;6.25;;;2.70;;
53875;SDS011;39789;53.216;5.624;2023-04-25T22:38:45;6.65;;;2.60;;
53875;SDS011;39789;53.216;5.624;2023-04-25T22:41:19;10.20;;;3.00;;
53875;SDS011;39789;53.216;5.624;2023-04-25T22:51:39;6.68;;;2.97;;
53875;SDS011;39789;53.216;5.624;2023-04-25T22:54:53;8.57;;;2.95;;
53875;SDS011;39789;53.216;5.624;2023-04-25T22:57:37;8.00;;;3.05;;
53875;SDS011;39789;53.216;5.624;2023-04-25T23:00:07;6.00;;;2.63;;
53875;SDS011;39789;53.216;5.624;2023-04-25T23:05:59;8.50;;;2.40;;
53875;SDS011;39789;53.216;5.624;2023-04-25T23:08:29;11.18;;;2.67;;
53875;SDS011;39789;53.216;5.624;2023-04-25T23:11:13;4.80;;;2.50;;
53875;SDS011;39789;53.216;5.624;2023-04-25T23:14:35;9.50;;;2.80;;
53875;SDS011;39789;53.216;5.624;2023-04-25T23:17:50;8.68;;;3.45;;
53875;SDS011;39789;53.216;5.624;2023-04-25T23:20:19;11.20;;;3.10;;
53875;SDS011;39789;53.216;5.624;2023-04-25T23:39:49;8.80;;;3.10;;
53875;SDS011;39789;53.216;5.624;2023-04-25T23:43:01;10.07;;;3.30;;
53875;SDS011;39789;53.216;5.624;2023-04-25T23:45:32;10.75;;;3.03;;
53875;SDS011;39789;53.216;5.624;2023-04-25T23:48:00;3.72;;;2.30;;
53875;SDS011;39789;53.216;5.624;2023-04-25T23:50:26;8.40;;;3.20;;
53875;SDS011;39789;53.216;5.624;2023-04-25T23:53:04;7.45;;;3.20;;
53875;SDS011;39789;53.216;5.624;2023-04-25T23:55:29;7.82;;;3.20;;
53875;SDS011;39789;53.216;5.624;2023-04-25T23:57:55;7.22;;;3.63;;
